x

Bodega Bay - 48nm Nnw Of San Francisco, Ca (46013) Wave Buoy

7:50am - Thu 28th Aug 2014 All times are PDT. -7 hours from GMT.

  • Sig Wave height 5.6ft
  • Peak Period 14s
  • Average Period 10s
  • Wind
    4mph, 7mph gusts
  • Sea Temp 62°f
  • Air Temp 58°f
  • Sea Pressure 1018.7mb
  • Bodega Bay - 48nm Nnw Of San Francisco, Ca
  • Bodega Bay - 48nm Nnw Of San Francisco, Ca

More Historic Weather Station data

Upgrade to MSW Pro to gain access to the past 30 days of data for over 8000 Wavebouys and Weather Stations around the globe.

Join Pro

Comparision Forecast

View Surf forecast
   
Thu 08/28 7:50am 5.5ft 14s 10s 4 7 mph 1018.7mb 62f 58f
6:50am 6ft 15s 10s 7 11 mph 1018.5mb 62f 57f
5:50am 5.5ft 14s 9s 7 9 mph 1018.3mb 62f 56f
4:50am 6ft 15s 10s 4 7 mph 1018.2mb 62f 56f
3:50am 5.5ft 14s 9s 4 9 mph 1018.2mb 62f 57f
2:50am 6ft 15s 9s 4 7 mph 1018.2mb 62f 57f
1:50am 5ft 15s 9s 7 11 mph 1018mb 62f 56f
12:50am 5ft 14s 8s 7 9 mph 1018mb 62f 57f
Wed 08/27 11:50pm 5.5ft 16s 8s 9 11 mph 1017.9mb 62f 57f
10:50pm 5.5ft 15s 8s 11 16 mph 1018mb 62f 58f
9:50pm 5.5ft 15s 7s 13 16 mph 1018mb 62f 58f
8:50pm 5ft 15s 7s 16 18 mph 1017.5mb 63f 58f
7:50pm 5ft 16s 7s 13 18 mph 1017.1mb 63f 57f
6:50pm 5.5ft 16s 8s 13 18 mph 1017mb 63f 58f
5:50pm 6ft 15s 9s 16 18 mph 1017.2mb 63f 59f
4:50pm 6ft 15s 9s 13 16 mph 1017.5mb 64f 59f
3:50pm 5ft 15s 9s 11 16 mph 1017.7mb 63f 59f
2:50pm 5ft 16s 9s 11 13 mph 1018.1mb 63f 59f
1:50pm 6ft 15s 10s 9 13 mph 1018.3mb 63f 59f
12:50pm 5.5ft 16s 9s 4 7 mph 1018.8mb 63f 58f
11:50am 4.5ft 16s 8s 7 9 mph 1019mb 63f 58f
10:50am 5ft 15s 8s 4 7 mph 1019.1mb 63f 58f
9:50am 5ft 15s 9s 7 9 mph 1019mb 63f 58f
8:50am 4.5ft 16s 8s 4 9 mph 1018.6mb 63f 58f
7:50am 5ft 16s 9s 4 7 mph 1018.2mb 63f 58f
6:50am 5ft 16s 8s 7 9 mph 1017.9mb 63f 58f
5:50am 4.5ft 16s 8s 7 9 mph 1017.2mb 63f 58f
4:50am 4.5ft 16s 7s 7 11 mph 1016.7mb 63f 59f
3:50am 4.5ft 14s 8s 11 13 mph 1016.5mb 63f 60f
2:50am 4.5ft 8s 8s 9 11 mph 1016.4mb 63f 61f
1:50am 4.5ft 8s 7s 7 9 mph 1016.3mb 63f 61f
12:50am 4.5ft 8s 7s 9 11 mph 1016.1mb 63f 61f
Tue 08/26 11:50pm 4.5ft 14s 7s 7 9 mph 1016.1mb 63f 61f
10:50pm 4.5ft 8s 8s 11 13 mph 1015.9mb 63f 62f
9:50pm 4.5ft 8s 7s 11
mph
1015.8mb 63f 62f
8:50pm 4ft 13s 7s 9 11 mph 1015.3mb 63f 62f
7:50pm 4.5ft 14s 7s 11 16 mph 1014.9mb 64f 62f
6:50pm 4.5ft 14s 8s 11 13 mph 1014.7mb 64f 63f
5:50pm 4.5ft 8s 8s 9 11 mph 1015.1mb 65f 63f
4:50pm 4.5ft 9s 8s 9 11 mph 1015.3mb 67f 63f
3:50pm 4.5ft 8s 8s 7 9 mph 1015.7mb 68f 63f
2:50pm 4.5ft 9s 7s 4 7 mph 1016.2mb 65f 63f
1:50pm 4.5ft 8s 8s  -  2 mph 1016.6mb 65f 62f
12:50pm 4.5ft 9s 8s 2
mph
1017mb 64f 62f
11:50am 5ft 8s 8s 2
mph
1017mb 63f 61f
10:50am 4.5ft 9s 8s  -  2 mph 1017.1mb 62f 62f
9:50am 5ft 9s 8s 2
mph
1016.8mb 62f 61f
8:50am 5ft 9s 8s 2 4 mph 1016.5mb 61f 61f
7:50am 5ft 9s 8s 2 4 mph 1016.1mb 61f 61f
6:50am 5ft 8s 8s  -  2 mph 1015.7mb 61f 61f
5:50am 4.5ft 9s 8s 2 4 mph 1015.2mb 61f 61f
4:50am 4.5ft 9s 8s 2 4 mph 1015.1mb 61f 61f
3:50am 4.5ft 8s 8s 2 4 mph 1015mb 61f 61f
2:50am 5ft 8s 8s 4 7 mph 1014.8mb 61f 61f
1:50am 4.5ft 9s 7s 4
mph
1014.6mb 61f 61f
12:50am 5ft 8s 7s 2 4 mph 1014.6mb 61f 61f
Mon 08/25 11:50pm 4.5ft 7s 7s 2 4 mph 1014.3mb 61f 60f
10:50pm 4.5ft 8s 7s 2 4 mph 1014.2mb 61f 60f
9:50pm 4.5ft 8s 7s 2 7 mph 1014mb 61f 60f
8:50pm 4.5ft 8s 7s  -  2 mph 1013.3mb 61f 60f
7:50pm 4ft 8s 7s 4 7 mph 1012.6mb 61f 59f
6:50pm 4ft 9s 7s 4 7 mph 1012.5mb 61f 60f
5:50pm 4ft 15s 7s 9 11 mph 1012.2mb 62f 59f
4:50pm 4ft 8s 7s 9 11 mph 1012.1mb 62f 60f
3:50pm 4.5ft 8s 7s 9 11 mph 1011.9mb 62f 59f
2:50pm 4.5ft 8s 7s 4 7 mph 1012.5mb 61f 58f
1:50pm 4.5ft 7s 7s 4 7 mph 1012.6mb 61f 59f
12:50pm 4.5ft 8s 7s 11 13 mph 1012.3mb 60f 58f
11:50am 4.5ft 8s 7s 9 11 mph 1012.7mb 60f 58f
10:50am 4.5ft 8s 7s 11 13 mph 1012.2mb 60f 58f
9:50am 5ft 8s 7s 11 13 mph 1012.2mb 60f 57f
8:50am 5ft 8s 7s 4 7 mph 1011.9mb 60f 57f
7:50am 4.5ft 8s 7s 13 16 mph 1011.1mb 60f 57f
6:50am 4.5ft 9s 7s 9 11 mph 1011.2mb 60f 58f
5:50am 5ft 8s 7s 7 9 mph 1011mb 60f 57f
4:50am 5ft 9s 7s 9 11 mph 1010.7mb 61f 56f
3:50am 5ft 9s 7s 9 11 mph 1011.2mb 61f 56f
2:50am 5ft 9s 7s 7 9 mph 1011.4mb 61f 56f
1:50am 5.5ft 9s 7s 9 13 mph 1011.5mb 61f 56f
12:50am 5ft 9s 7s 9 11 mph 1012mb 61f 57f
Sun 08/24 11:50pm 5ft 9s 7s 9 13 mph 1011.8mb 61f 57f
10:50pm 6ft 8s 7s 9 13 mph 1011.6mb 61f 58f
9:50pm 5.5ft 9s 7s 9 13 mph 1011.7mb 61f 59f
8:50pm 5ft 9s 7s 11 13 mph 1011.3mb 61f 59f
7:50pm 5ft 8s 7s 11 13 mph 1010.9mb 61f 59f
6:50pm 5ft 9s 8s 11 16 mph 1010.9mb 61f 60f
5:50pm 5.5ft 8s 8s 9 11 mph 1011mb 62f 60f
4:50pm 5ft 8s 8s 9
mph
1011.5mb 62f 60f